createdAt,value
2022-08-05T00:04:57.163Z,101417.69
2022-08-05T00:09:59.255Z,101403.63
2022-08-05T00:15:55.174Z,101382.47
2022-08-05T00:20:22.665Z,101369.25
2022-08-05T00:25:45.402Z,101373.69
2022-08-05T00:30:52.072Z,101402.84
2022-08-05T00:36:16.428Z,101374.63
2022-08-05T00:41:28.496Z,101275.78
2022-08-05T00:46:54.285Z,57128.34
2022-08-05T00:52:04.118Z,57128.34
2022-08-05T00:57:05.782Z,57128.34
2022-08-05T01:02:07.732Z,57128.34
2022-08-05T01:07:13.832Z,57128.34
2022-08-05T01:12:21.565Z,57128.34
2022-08-05T01:17:44.060Z,57128.34
2022-08-05T01:23:14.426Z,57128.34
2022-08-05T01:28:36.671Z,57128.34
2022-08-05T01:33:53.470Z,57128.34
2022-08-05T01:39:13.768Z,101293.59
2022-08-05T01:44:19.082Z,101290.06
2022-08-05T01:49:25.181Z,101304.16
2022-08-05T01:54:32.889Z,101298.84
2022-08-05T01:59:47.090Z,101320.91
2022-08-05T02:04:54.580Z,101323.56
2022-08-05T02:10:02.342Z,101314.72
2022-08-05T02:15:19.606Z,101299.75
2022-08-05T02:25:52.428Z,101282.13
2022-08-05T02:31:04.155Z,101306.78
2022-08-05T02:36:15.334Z,101306.78
2022-08-05T02:41:20.977Z,101297.13
2022-08-05T02:46:36.357Z,101321.78
2022-08-05T02:52:03.177Z,101306.78
2022-08-05T02:58:12.050Z,101297.97
2022-08-05T03:03:02.633Z,101298.84
2022-08-05T03:08:13.888Z,101321.81
2022-08-05T03:13:20.816Z,101291.84
2022-08-05T03:18:32.840Z,101307.72
2022-08-05T03:23:41.078Z,101307.72
2022-08-05T03:28:47.760Z,101307.72
2022-08-05T03:33:53.012Z,101306.84
2022-08-05T03:38:55.357Z,101317.41
2022-08-05T03:44:08.533Z,101317.41
2022-08-05T03:49:14.939Z,101331.53
2022-08-05T03:55:54.208Z,101342.09
2022-08-05T04:00:26.528Z,101346.50
2022-08-05T04:05:33.836Z,101344.72
2022-08-05T04:10:38.340Z,101342.06
2022-08-05T04:15:52.814Z,101335.00
2022-08-05T04:21:05.083Z,101327.94
2022-08-05T04:26:07.582Z,101334.13
2022-08-05T04:31:10.528Z,101339.44
2022-08-05T04:36:45.426Z,101313.84
2022-08-05T04:41:37.623Z,101303.28
2022-08-05T04:46:57.484Z,101308.56
2022-08-05T04:52:14.766Z,101333.22
2022-08-05T04:57:20.070Z,101329.72
2022-08-05T05:02:37.346Z,101348.25
2022-08-05T05:07:52.986Z,101348.25
2022-08-05T05:12:58.647Z,101362.38
2022-08-05T05:18:00.480Z,101340.31
2022-08-05T05:23:19.932Z,101322.69
2022-08-05T05:28:22.131Z,101341.22
2022-08-05T05:33:26.711Z,101340.31
2022-08-05T05:38:29.703Z,101342.97
2022-08-05T05:43:57.049Z,101323.56
2022-08-05T05:48:53.365Z,101332.38
2022-08-05T05:53:59.285Z,101337.66
2022-08-05T05:59:06.361Z,101340.31
2022-08-05T06:04:11.844Z,101354.44
2022-08-05T06:09:16.982Z,101329.72
2022-08-05T06:14:28.083Z,101328.00
2022-08-05T06:19:41.316Z,101360.63
2022-08-05T06:24:53.727Z,101363.25
2022-08-05T06:30:04.385Z,101375.63
2022-08-05T06:36:02.937Z,101386.19
2022-08-05T06:40:44.855Z,101387.06
2022-08-05T06:46:06.921Z,101392.34
2022-08-05T06:51:12.151Z,101382.66
2022-08-05T06:56:55.101Z,101395.00
2022-08-05T07:02:13.500Z,101404.72
2022-08-05T07:07:24.141Z,101402.94
2022-08-05T07:12:55.762Z,101401.19
2022-08-05T07:18:08.994Z,101391.47
2022-08-05T07:23:13.053Z,101399.41
2022-08-05T07:28:28.261Z,101417.94
2022-08-05T07:33:36.937Z,101415.28
2022-08-05T07:38:43.509Z,101425.88
2022-08-05T07:43:46.594Z,101427.63
2022-08-05T07:49:01.397Z,101422.31
2022-08-05T07:54:08.439Z,101430.25
2022-08-05T07:59:11.553Z,101423.22
2022-08-05T08:04:17.198Z,101422.34
2022-08-05T08:09:37.511Z,101422.34
2022-08-05T08:14:40.743Z,101423.22
2022-08-05T08:20:20.973Z,101418.81
2022-08-05T08:25:16.513Z,101427.63
2022-08-05T08:30:32.483Z,101421.44
2022-08-05T08:35:41.294Z,101412.63
2022-08-05T08:40:54.411Z,101432.03
2022-08-05T08:45:59.283Z,101440.84
2022-08-05T08:52:02.001Z,101445.25
2022-08-05T08:56:27.165Z,101446.13
2022-08-05T09:01:29.024Z,101448.78
2022-08-05T09:06:31.394Z,101438.16
2022-08-05T09:11:50.706Z,101436.34
2022-08-05T09:16:55.428Z,101446.84
2022-08-05T09:22:22.888Z,101450.34
2022-08-05T09:28:05.252Z,101445.19
2022-08-05T09:33:02.253Z,101445.22
2022-08-05T09:38:12.253Z,101442.50
2022-08-05T09:43:41.344Z,101452.16
2022-08-05T09:48:55.301Z,101441.53
2022-08-05T09:54:08.459Z,101439.81
2022-08-05T09:59:17.213Z,101445.13
2022-08-05T10:04:19.193Z,101431.00
2022-08-05T10:09:31.084Z,101451.19
2022-08-05T10:14:47.333Z,101467.84
2022-08-05T10:20:03.662Z,101466.09
2022-08-05T10:25:14.444Z,101460.78
2022-08-05T10:31:20.620Z,101470.47
2022-08-05T10:35:40.691Z,101473.06
2022-08-05T10:40:52.132Z,101478.31
2022-08-05T10:46:06.235Z,101478.31
2022-08-05T10:51:22.458Z,101471.25
2022-08-05T10:56:29.340Z,101488.06
2022-08-05T11:01:54.947Z,101482.53
2022-08-05T11:07:06.873Z,101488.56
2022-08-05T11:12:50.502Z,101501.91
2022-08-05T11:18:14.114Z,101501.91
2022-08-05T11:24:02.526Z,101521.69
2022-08-05T11:28:58.690Z,101525.09
2022-08-05T11:34:08.633Z,101521.56
2022-08-05T11:39:48.056Z,101529.63
2022-08-05T11:44:53.913Z,101526.94
2022-08-05T11:50:00.577Z,101522.41
2022-08-05T11:55:07.722Z,101527.41
2022-08-05T12:00:30.216Z,101540.72
2022-08-05T12:05:36.253Z,101540.59
2022-08-05T12:10:45.435Z,101535.19
2022-08-05T12:15:49.812Z,101545.19
2022-08-05T12:20:52.010Z,101535.41
2022-08-05T12:25:56.413Z,101534.34
2022-08-05T12:31:02.399Z,101537.25
2022-08-05T12:36:08.089Z,101535.75
2022-08-05T12:41:13.141Z,101543.09
2022-08-05T12:46:28.085Z,101538.16
2022-08-05T12:52:10.740Z,101542.34
2022-08-05T12:57:01.688Z,101548.47
2022-08-05T13:02:08.185Z,101550.84
2022-08-05T13:07:57.809Z,101571.16
2022-08-05T13:12:51.178Z,101564.28
2022-08-05T13:17:59.533Z,101582.66
2022-08-05T13:23:01.112Z,101595.34
2022-08-05T13:28:10.610Z,101601.84
2022-08-05T13:33:14.346Z,101614.03
2022-08-05T13:38:36.265Z,101629.06
2022-08-05T13:43:54.554Z,101643.41
2022-08-05T13:49:00.634Z,101651.53
2022-08-05T13:54:02.839Z,101659.78
2022-08-05T13:59:05.961Z,101670.59
2022-08-05T14:04:26.927Z,101667.00
2022-08-05T14:09:29.684Z,101691.91
2022-08-05T14:14:33.788Z,101684.41
2022-08-05T14:19:55.105Z,101695.22
2022-08-05T14:24:57.086Z,101708.41
2022-08-05T14:29:58.686Z,101713.06
2022-08-05T14:35:00.675Z,101724.75
2022-08-05T14:40:02.544Z,101727.81
2022-08-05T14:45:05.020Z,101732.22
2022-08-05T14:50:18.155Z,101749.00
2022-08-05T14:55:20.525Z,101750.66
2022-08-05T15:00:28.222Z,101760.19
2022-08-05T15:06:06.902Z,101773.06
2022-08-05T15:10:54.341Z,101766.88
2022-08-05T15:15:56.505Z,101783.56
2022-08-05T15:20:58.211Z,101792.44
2022-08-05T15:26:09.378Z,101787.56
2022-08-05T15:31:11.353Z,101795.09
2022-08-05T15:36:17.738Z,101813.72
2022-08-05T15:41:55.165Z,101823.50
2022-08-05T15:46:47.573Z,101822.63
2022-08-05T15:52:04.118Z,101826.50
2022-08-05T15:57:14.399Z,101833.38
2022-08-05T16:02:19.854Z,101831.59
2022-08-05T16:07:30.547Z,101825.28
2022-08-05T16:12:32.177Z,101827.28
2022-08-05T16:17:33.822Z,101829.78
2022-08-05T16:22:35.669Z,101831.81
2022-08-05T16:28:00.744Z,101846.03
2022-08-05T16:33:01.762Z,101837.13
2022-08-05T16:38:18.834Z,101843.19
2022-08-05T16:43:26.345Z,101874.53
2022-08-05T16:48:33.752Z,101865.06
2022-08-05T16:54:06.329Z,101865.16
2022-08-05T16:59:08.140Z,101871.19
2022-08-05T17:04:10.484Z,101872.91
2022-08-05T17:09:12.168Z,101875.66
2022-08-05T17:14:34.387Z,101871.09
2022-08-05T17:19:37.557Z,101884.44
2022-08-05T17:24:46.279Z,101869.91
2022-08-05T17:29:59.758Z,101872.59
2022-08-05T17:35:04.611Z,101879.69
2022-08-05T17:40:10.899Z,101887.81
2022-08-05T17:45:18.107Z,101887.94
2022-08-05T17:50:28.435Z,101903.78
2022-08-05T17:55:38.426Z,101906.41
2022-08-05T18:00:47.634Z,101914.31
2022-08-05T18:05:53.603Z,101923.97
2022-08-05T18:10:55.903Z,101926.44
2022-08-05T18:15:59.593Z,57128.34
2022-08-05T18:21:01.678Z,57128.34
2022-08-05T18:26:03.235Z,101926.44
2022-08-05T18:31:07.103Z,101944.59
2022-08-05T18:36:15.299Z,101941.88
2022-08-05T18:41:55.543Z,57128.34
2022-08-05T18:46:38.930Z,57128.34
2022-08-05T18:52:06.302Z,57128.34
2022-08-05T18:57:15.292Z,57128.34
2022-08-05T19:02:36.560Z,57128.34
2022-08-05T19:07:45.337Z,57128.34
2022-08-05T19:12:48.636Z,57128.34
2022-08-05T19:17:59.172Z,57128.34
2022-08-05T19:24:03.604Z,101941.88
2022-08-05T19:28:35.012Z,102017.06
2022-08-05T19:33:38.033Z,102018.63
2022-08-05T19:38:43.668Z,102027.22
2022-08-05T19:44:05.507Z,102035.00
2022-08-05T19:49:07.707Z,102038.31
2022-08-05T19:54:21.739Z,102042.50
2022-08-05T19:59:54.711Z,102059.03
2022-08-05T20:04:55.611Z,102062.41
2022-08-05T20:10:00.890Z,102071.06
2022-08-05T20:15:02.422Z,102077.94
2022-08-05T20:20:09.443Z,102077.94
2022-08-05T20:25:12.613Z,102087.97
2022-08-05T20:30:14.479Z,102086.94
2022-08-05T20:35:23.987Z,57128.34
2022-08-05T20:40:32.797Z,57128.34
2022-08-05T20:45:56.344Z,57128.34
2022-08-05T20:51:00.411Z,57128.34
2022-08-05T20:56:12.434Z,57128.34
2022-08-05T21:01:15.636Z,57128.34
2022-08-05T21:06:54.733Z,57128.34
2022-08-05T21:12:09.558Z,57128.34
2022-08-05T21:17:40.790Z,57128.34
2022-08-05T21:22:44.957Z,57128.34
2022-08-05T21:27:48.024Z,57128.34
2022-08-05T21:32:54.501Z,57128.34
2022-08-05T21:37:56.279Z,57128.34
2022-08-05T21:43:05.841Z,57128.34
2022-08-05T21:48:25.208Z,57128.34
2022-08-05T21:53:28.059Z,57128.34
2022-08-05T21:58:31.907Z,57128.34
2022-08-05T22:03:51.922Z,57128.34
2022-08-05T22:08:57.775Z,57128.34
2022-08-05T22:14:37.281Z,57128.34
2022-08-05T22:20:00.541Z,57128.34
2022-08-05T22:25:31.215Z,57128.34
2022-08-05T22:30:55.784Z,57128.34
2022-08-05T22:36:07.960Z,57128.34
2022-08-05T22:42:04.422Z,57128.34
2022-08-05T22:46:47.462Z,57128.34
2022-08-05T22:52:04.446Z,57128.34
2022-08-05T22:57:09.593Z,57128.34
2022-08-05T23:02:13.578Z,57128.34
2022-08-05T23:07:18.928Z,57128.34
2022-08-05T23:12:28.662Z,57128.34
2022-08-05T23:17:34.466Z,57128.34
2022-08-05T23:22:39.584Z,57128.34
2022-08-05T23:27:57.471Z,57128.34
2022-08-05T23:32:59.779Z,57128.34
2022-08-05T23:38:01.945Z,57128.34
2022-08-05T23:43:24.388Z,57128.34
2022-08-05T23:48:26.352Z,57128.34
2022-08-05T23:53:46.545Z,57128.34
2022-08-05T23:58:48.840Z,57128.34
